sensor_id;sensor_type;location;lat;lon;timestamp;temperature;humidity
24146;DHT22;12308;50.948;4.706;2023-06-14T00:01:24;20.20;99.90
24146;DHT22;12308;50.948;4.706;2023-06-14T00:03:50;20.20;99.90
24146;DHT22;12308;50.948;4.706;2023-06-14T00:06:16;20.20;99.90
24146;DHT22;12308;50.948;4.706;2023-06-14T00:08:42;20.20;99.90
24146;DHT22;12308;50.948;4.706;2023-06-14T00:11:08;20.20;99.90
24146;DHT22;12308;50.948;4.706;2023-06-14T00:13:34;20.10;99.90
24146;DHT22;12308;50.948;4.706;2023-06-14T00:16:00;20.00;99.90
24146;DHT22;12308;50.948;4.706;2023-06-14T00:18:25;20.00;99.90
24146;DHT22;12308;50.948;4.706;2023-06-14T00:20:55;20.00;99.90
24146;DHT22;12308;50.948;4.706;2023-06-14T00:23:21;19.90;99.90
24146;DHT22;12308;50.948;4.706;2023-06-14T00:25:46;20.00;99.90
24146;DHT22;12308;50.948;4.706;2023-06-14T00:28:12;19.90;99.90
24146;DHT22;12308;50.948;4.706;2023-06-14T00:30:38;19.90;99.90
24146;DHT22;12308;50.948;4.706;2023-06-14T00:33:04;19.90;99.90
24146;DHT22;12308;50.948;4.706;2023-06-14T00:35:30;19.80;99.90
24146;DHT22;12308;50.948;4.706;2023-06-14T00:37:56;19.90;99.90
24146;DHT22;12308;50.948;4.706;2023-06-14T00:40:22;19.80;99.90
24146;DHT22;12308;50.948;4.706;2023-06-14T00:42:48;19.80;99.90
24146;DHT22;12308;50.948;4.706;2023-06-14T00:45:13;19.70;99.90
24146;DHT22;12308;50.948;4.706;2023-06-14T00:47:41;19.60;99.90
24146;DHT22;12308;50.948;4.706;2023-06-14T00:50:07;19.40;99.90
24146;DHT22;12308;50.948;4.706;2023-06-14T00:52:34;19.50;99.90
24146;DHT22;12308;50.948;4.706;2023-06-14T00:55:00;19.50;99.90
24146;DHT22;12308;50.948;4.706;2023-06-14T00:57:26;19.40;99.90
24146;DHT22;12308;50.948;4.706;2023-06-14T00:59:52;19.40;99.90
24146;DHT22;12308;50.948;4.706;2023-06-14T01:02:18;19.20;99.90
24146;DHT22;12308;50.948;4.706;2023-06-14T01:04:47;19.20;99.90
24146;DHT22;12308;50.948;4.706;2023-06-14T01:07:25;19.10;99.90
24146;DHT22;12308;50.948;4.706;2023-06-14T01:12:46;19.00;99.90
24146;DHT22;12308;50.948;4.706;2023-06-14T01:15:14;19.10;99.90
24146;DHT22;12308;50.948;4.706;2023-06-14T01:17:41;18.90;99.90
24146;DHT22;12308;50.948;4.706;2023-06-14T01:20:11;18.70;99.90
24146;DHT22;12308;50.948;4.706;2023-06-14T01:22:51;18.60;99.90
24146;DHT22;12308;50.948;4.706;2023-06-14T01:25:18;18.60;99.90
24146;DHT22;12308;50.948;4.706;2023-06-14T01:28:03;18.60;99.90
24146;DHT22;12308;50.948;4.706;2023-06-14T01:30:30;18.50;99.90
24146;DHT22;12308;50.948;4.706;2023-06-14T01:32:57;18.70;99.90
24146;DHT22;12308;50.948;4.706;2023-06-14T01:35:23;18.60;99.90
24146;DHT22;12308;50.948;4.706;2023-06-14T01:37:49;18.60;99.90
24146;DHT22;12308;50.948;4.706;2023-06-14T01:40:18;18.50;99.90
24146;DHT22;12308;50.948;4.706;2023-06-14T01:42:46;18.50;99.90
24146;DHT22;12308;50.948;4.706;2023-06-14T01:45:14;18.50;99.90
24146;DHT22;12308;50.948;4.706;2023-06-14T01:47:40;18.50;99.90
24146;DHT22;12308;50.948;4.706;2023-06-14T01:50:06;18.50;99.90
24146;DHT22;12308;50.948;4.706;2023-06-14T01:52:32;18.50;99.90
24146;DHT22;12308;50.948;4.706;2023-06-14T01:54:57;18.50;99.90
24146;DHT22;12308;50.948;4.706;2023-06-14T01:57:24;18.40;99.90
24146;DHT22;12308;50.948;4.706;2023-06-14T01:59:51;18.40;99.90
24146;DHT22;12308;50.948;4.706;2023-06-14T02:02:17;18.40;99.90
24146;DHT22;12308;50.948;4.706;2023-06-14T02:04:43;18.40;99.90
24146;DHT22;12308;50.948;4.706;2023-06-14T02:07:08;18.50;99.90
24146;DHT22;12308;50.948;4.706;2023-06-14T02:09:34;18.40;99.90
24146;DHT22;12308;50.948;4.706;2023-06-14T02:12:01;18.30;99.90
24146;DHT22;12308;50.948;4.706;2023-06-14T02:14:26;18.20;99.90
24146;DHT22;12308;50.948;4.706;2023-06-14T02:16:52;18.10;99.90
24146;DHT22;12308;50.948;4.706;2023-06-14T02:19:19;18.10;99.90
24146;DHT22;12308;50.948;4.706;2023-06-14T02:21:46;18.10;99.90
24146;DHT22;12308;50.948;4.706;2023-06-14T02:24:12;17.90;99.90
24146;DHT22;12308;50.948;4.706;2023-06-14T02:26:38;17.90;99.90
24146;DHT22;12308;50.948;4.706;2023-06-14T02:29:05;18.00;99.90
24146;DHT22;12308;50.948;4.706;2023-06-14T02:31:31;17.90;99.90
24146;DHT22;12308;50.948;4.706;2023-06-14T02:33:58;17.80;99.90
24146;DHT22;12308;50.948;4.706;2023-06-14T02:36:23;17.80;99.90
24146;DHT22;12308;50.948;4.706;2023-06-14T02:38:49;17.80;99.90
24146;DHT22;12308;50.948;4.706;2023-06-14T02:41:15;17.80;99.90
24146;DHT22;12308;50.948;4.706;2023-06-14T02:43:40;17.70;99.90
24146;DHT22;12308;50.948;4.706;2023-06-14T02:46:07;17.60;99.90
24146;DHT22;12308;50.948;4.706;2023-06-14T02:48:33;17.60;99.90
24146;DHT22;12308;50.948;4.706;2023-06-14T02:50:58;17.60;99.90
24146;DHT22;12308;50.948;4.706;2023-06-14T02:53:24;17.60;99.90
24146;DHT22;12308;50.948;4.706;2023-06-14T02:55:49;17.60;99.90
24146;DHT22;12308;50.948;4.706;2023-06-14T02:58:15;17.60;99.90
24146;DHT22;12308;50.948;4.706;2023-06-14T03:00:42;17.70;99.90
24146;DHT22;12308;50.948;4.706;2023-06-14T03:03:08;17.60;99.90
24146;DHT22;12308;50.948;4.706;2023-06-14T03:05:43;17.40;99.90
24146;DHT22;12308;50.948;4.706;2023-06-14T03:08:12;17.30;99.90
24146;DHT22;12308;50.948;4.706;2023-06-14T03:10:46;17.40;99.90
24146;DHT22;12308;50.948;4.706;2023-06-14T03:13:13;17.30;99.90
24146;DHT22;12308;50.948;4.706;2023-06-14T03:15:38;17.20;99.90
24146;DHT22;12308;50.948;4.706;2023-06-14T03:18:08;17.20;99.90
24146;DHT22;12308;50.948;4.706;2023-06-14T03:20:35;17.10;99.90
24146;DHT22;12308;50.948;4.706;2023-06-14T03:23:02;17.10;99.90
24146;DHT22;12308;50.948;4.706;2023-06-14T03:25:28;17.10;99.90
24146;DHT22;12308;50.948;4.706;2023-06-14T03:27:57;17.00;99.90
24146;DHT22;12308;50.948;4.706;2023-06-14T03:30:23;17.00;99.90
24146;DHT22;12308;50.948;4.706;2023-06-14T03:32:48;16.90;99.90
24146;DHT22;12308;50.948;4.706;2023-06-14T03:35:14;16.90;99.90
24146;DHT22;12308;50.948;4.706;2023-06-14T03:37:44;16.90;99.90
24146;DHT22;12308;50.948;4.706;2023-06-14T03:40:11;16.90;99.90
24146;DHT22;12308;50.948;4.706;2023-06-14T03:42:37;16.90;99.90
24146;DHT22;12308;50.948;4.706;2023-06-14T03:45:03;17.00;99.90
24146;DHT22;12308;50.948;4.706;2023-06-14T03:47:29;17.00;99.90
24146;DHT22;12308;50.948;4.706;2023-06-14T03:49:55;16.80;99.90
24146;DHT22;12308;50.948;4.706;2023-06-14T03:52:20;16.80;99.90
24146;DHT22;12308;50.948;4.706;2023-06-14T03:54:47;16.80;99.90
24146;DHT22;12308;50.948;4.706;2023-06-14T03:57:13;16.80;99.90
24146;DHT22;12308;50.948;4.706;2023-06-14T03:59:39;16.90;99.90
24146;DHT22;12308;50.948;4.706;2023-06-14T04:02:04;17.00;99.90
24146;DHT22;12308;50.948;4.706;2023-06-14T04:04:30;17.00;99.90
24146;DHT22;12308;50.948;4.706;2023-06-14T04:06:57;17.00;99.90
24146;DHT22;12308;50.948;4.706;2023-06-14T04:09:24;17.00;99.90
24146;DHT22;12308;50.948;4.706;2023-06-14T04:11:51;17.00;99.90
24146;DHT22;12308;50.948;4.706;2023-06-14T04:14:19;17.00;99.90
24146;DHT22;12308;50.948;4.706;2023-06-14T04:16:46;17.00;99.90
24146;DHT22;12308;50.948;4.706;2023-06-14T04:19:11;17.20;99.90
24146;DHT22;12308;50.948;4.706;2023-06-14T04:21:37;17.20;99.90
24146;DHT22;12308;50.948;4.706;2023-06-14T04:24:03;17.20;99.90
24146;DHT22;12308;50.948;4.706;2023-06-14T04:26:29;17.20;99.90
24146;DHT22;12308;50.948;4.706;2023-06-14T04:28:55;17.20;99.90
24146;DHT22;12308;50.948;4.706;2023-06-14T04:31:22;17.30;99.90
24146;DHT22;12308;50.948;4.706;2023-06-14T04:33:50;17.20;99.90
24146;DHT22;12308;50.948;4.706;2023-06-14T04:36:18;17.30;99.90
24146;DHT22;12308;50.948;4.706;2023-06-14T04:38:44;17.40;99.90
24146;DHT22;12308;50.948;4.706;2023-06-14T04:41:14;17.50;99.90
24146;DHT22;12308;50.948;4.706;2023-06-14T04:43:41;17.60;99.90
24146;DHT22;12308;50.948;4.706;2023-06-14T04:46:08;17.70;99.90
24146;DHT22;12308;50.948;4.706;2023-06-14T04:48:35;17.80;99.90
24146;DHT22;12308;50.948;4.706;2023-06-14T04:51:01;17.80;99.90
24146;DHT22;12308;50.948;4.706;2023-06-14T04:53:29;17.90;99.90
24146;DHT22;12308;50.948;4.706;2023-06-14T04:55:55;18.00;99.90
24146;DHT22;12308;50.948;4.706;2023-06-14T04:58:20;18.10;99.90
24146;DHT22;12308;50.948;4.706;2023-06-14T05:00:46;18.10;99.90
24146;DHT22;12308;50.948;4.706;2023-06-14T05:03:12;18.20;99.90
24146;DHT22;12308;50.948;4.706;2023-06-14T05:05:42;18.20;99.90
24146;DHT22;12308;50.948;4.706;2023-06-14T05:08:08;18.20;99.90
24146;DHT22;12308;50.948;4.706;2023-06-14T05:10:34;18.50;99.90
24146;DHT22;12308;50.948;4.706;2023-06-14T05:13:01;18.60;99.90
24146;DHT22;12308;50.948;4.706;2023-06-14T05:15:27;18.60;99.90
24146;DHT22;12308;50.948;4.706;2023-06-14T05:17:54;18.80;99.90
24146;DHT22;12308;50.948;4.706;2023-06-14T05:20:24;18.80;99.90
24146;DHT22;12308;50.948;4.706;2023-06-14T05:22:53;18.90;99.90
24146;DHT22;12308;50.948;4.706;2023-06-14T05:25:20;18.90;99.90
24146;DHT22;12308;50.948;4.706;2023-06-14T05:27:46;19.10;99.90
24146;DHT22;12308;50.948;4.706;2023-06-14T05:30:13;19.20;99.90
24146;DHT22;12308;50.948;4.706;2023-06-14T05:32:39;19.30;99.90
24146;DHT22;12308;50.948;4.706;2023-06-14T05:35:05;19.50;99.90
24146;DHT22;12308;50.948;4.706;2023-06-14T05:37:31;19.80;99.90
24146;DHT22;12308;50.948;4.706;2023-06-14T05:39:57;19.80;99.90
24146;DHT22;12308;50.948;4.706;2023-06-14T05:42:23;19.90;99.90
24146;DHT22;12308;50.948;4.706;2023-06-14T05:44:48;20.00;99.90
24146;DHT22;12308;50.948;4.706;2023-06-14T05:47:14;20.20;99.90
24146;DHT22;12308;50.948;4.706;2023-06-14T05:49:40;20.10;99.90
24146;DHT22;12308;50.948;4.706;2023-06-14T05:52:06;20.00;99.90
24146;DHT22;12308;50.948;4.706;2023-06-14T05:54:32;20.10;99.90
24146;DHT22;12308;50.948;4.706;2023-06-14T05:56:57;20.30;99.90
24146;DHT22;12308;50.948;4.706;2023-06-14T05:59:27;20.30;99.90
24146;DHT22;12308;50.948;4.706;2023-06-14T06:01:52;20.40;99.90
24146;DHT22;12308;50.948;4.706;2023-06-14T06:04:18;20.60;99.90
24146;DHT22;12308;50.948;4.706;2023-06-14T06:06:45;20.80;99.90
24146;DHT22;12308;50.948;4.706;2023-06-14T06:09:10;20.70;99.90
24146;DHT22;12308;50.948;4.706;2023-06-14T06:11:36;20.90;99.90
24146;DHT22;12308;50.948;4.706;2023-06-14T06:14:02;21.10;99.90
24146;DHT22;12308;50.948;4.706;2023-06-14T06:16:27;21.00;99.90
24146;DHT22;12308;50.948;4.706;2023-06-14T06:18:53;21.00;99.90
24146;DHT22;12308;50.948;4.706;2023-06-14T06:21:18;21.10;99.90
24146;DHT22;12308;50.948;4.706;2023-06-14T06:23:44;21.20;99.90
24146;DHT22;12308;50.948;4.706;2023-06-14T06:26:10;21.30;99.90
24146;DHT22;12308;50.948;4.706;2023-06-14T06:28:36;21.60;99.90
24146;DHT22;12308;50.948;4.706;2023-06-14T06:31:01;21.60;99.90
24146;DHT22;12308;50.948;4.706;2023-06-14T06:33:27;21.50;99.90
24146;DHT22;12308;50.948;4.706;2023-06-14T06:35:52;21.70;99.90
24146;DHT22;12308;50.948;4.706;2023-06-14T06:38:18;21.70;99.90
24146;DHT22;12308;50.948;4.706;2023-06-14T06:40:44;21.70;99.90
24146;DHT22;12308;50.948;4.706;2023-06-14T06:43:10;21.80;99.90
24146;DHT22;12308;50.948;4.706;2023-06-14T06:45:39;21.80;99.90
24146;DHT22;12308;50.948;4.706;2023-06-14T06:48:05;22.00;99.90
24146;DHT22;12308;50.948;4.706;2023-06-14T06:50:31;22.10;99.90
24146;DHT22;12308;50.948;4.706;2023-06-14T06:52:56;22.30;99.90
24146;DHT22;12308;50.948;4.706;2023-06-14T06:55:23;22.30;99.90
24146;DHT22;12308;50.948;4.706;2023-06-14T06:57:48;22.30;99.90
24146;DHT22;12308;50.948;4.706;2023-06-14T07:00:15;22.20;99.90
24146;DHT22;12308;50.948;4.706;2023-06-14T07:02:43;22.30;99.90
24146;DHT22;12308;50.948;4.706;2023-06-14T07:05:08;22.20;99.90
24146;DHT22;12308;50.948;4.706;2023-06-14T07:07:34;22.50;99.90
24146;DHT22;12308;50.948;4.706;2023-06-14T07:10:00;22.70;99.90
24146;DHT22;12308;50.948;4.706;2023-06-14T07:12:29;22.70;99.90
24146;DHT22;12308;50.948;4.706;2023-06-14T07:14:55;22.90;99.90
24146;DHT22;12308;50.948;4.706;2023-06-14T07:17:21;22.80;99.90
24146;DHT22;12308;50.948;4.706;2023-06-14T07:19:46;22.90;99.90
24146;DHT22;12308;50.948;4.706;2023-06-14T07:22:12;23.00;99.90
24146;DHT22;12308;50.948;4.706;2023-06-14T07:24:38;23.10;99.90
24146;DHT22;12308;50.948;4.706;2023-06-14T07:27:05;23.30;99.90
24146;DHT22;12308;50.948;4.706;2023-06-14T07:29:31;23.20;99.90
24146;DHT22;12308;50.948;4.706;2023-06-14T07:31:57;23.30;99.90
24146;DHT22;12308;50.948;4.706;2023-06-14T07:34:23;23.40;99.90
24146;DHT22;12308;50.948;4.706;2023-06-14T07:36:48;23.60;99.90
24146;DHT22;12308;50.948;4.706;2023-06-14T07:39:14;23.70;99.90
24146;DHT22;12308;50.948;4.706;2023-06-14T07:41:40;23.70;99.90
24146;DHT22;12308;50.948;4.706;2023-06-14T07:44:06;23.80;99.90
24146;DHT22;12308;50.948;4.706;2023-06-14T07:46:31;23.80;99.90
24146;DHT22;12308;50.948;4.706;2023-06-14T07:48:57;23.90;99.90
24146;DHT22;12308;50.948;4.706;2023-06-14T07:51:22;24.10;99.90
24146;DHT22;12308;50.948;4.706;2023-06-14T07:53:49;23.90;99.90
24146;DHT22;12308;50.948;4.706;2023-06-14T07:56:15;24.00;99.90
24146;DHT22;12308;50.948;4.706;2023-06-14T07:58:40;24.00;99.90
24146;DHT22;12308;50.948;4.706;2023-06-14T08:01:06;23.90;99.90
24146;DHT22;12308;50.948;4.706;2023-06-14T08:03:33;23.90;99.90
24146;DHT22;12308;50.948;4.706;2023-06-14T08:06:00;23.80;99.90
24146;DHT22;12308;50.948;4.706;2023-06-14T08:08:26;23.80;99.90
24146;DHT22;12308;50.948;4.706;2023-06-14T08:10:52;23.90;99.90
24146;DHT22;12308;50.948;4.706;2023-06-14T08:13:18;23.80;99.90
24146;DHT22;12308;50.948;4.706;2023-06-14T08:15:45;23.70;99.90
24146;DHT22;12308;50.948;4.706;2023-06-14T08:18:10;23.90;99.90
24146;DHT22;12308;50.948;4.706;2023-06-14T08:20:36;23.70;99.90
24146;DHT22;12308;50.948;4.706;2023-06-14T08:23:03;23.80;99.90
24146;DHT22;12308;50.948;4.706;2023-06-14T08:25:30;23.80;99.90
24146;DHT22;12308;50.948;4.706;2023-06-14T08:27:56;24.00;99.90
24146;DHT22;12308;50.948;4.706;2023-06-14T08:30:22;24.10;99.90
24146;DHT22;12308;50.948;4.706;2023-06-14T08:32:47;24.10;99.90
24146;DHT22;12308;50.948;4.706;2023-06-14T08:35:13;24.20;99.90
24146;DHT22;12308;50.948;4.706;2023-06-14T08:37:40;24.40;99.90
24146;DHT22;12308;50.948;4.706;2023-06-14T08:40:23;24.50;99.90
24146;DHT22;12308;50.948;4.706;2023-06-14T08:42:53;24.50;99.90
24146;DHT22;12308;50.948;4.706;2023-06-14T08:45:23;24.50;99.90
24146;DHT22;12308;50.948;4.706;2023-06-14T08:47:53;24.40;99.90
24146;DHT22;12308;50.948;4.706;2023-06-14T08:50:26;24.50;99.90
24146;DHT22;12308;50.948;4.706;2023-06-14T08:52:57;24.50;99.90
24146;DHT22;12308;50.948;4.706;2023-06-14T08:55:26;24.60;99.90
24146;DHT22;12308;50.948;4.706;2023-06-14T08:57:57;24.60;99.90
24146;DHT22;12308;50.948;4.706;2023-06-14T09:00:24;24.60;99.90
24146;DHT22;12308;50.948;4.706;2023-06-14T09:02:51;24.70;99.90
24146;DHT22;12308;50.948;4.706;2023-06-14T09:05:25;24.70;99.90
24146;DHT22;12308;50.948;4.706;2023-06-14T09:07:51;24.80;99.90
24146;DHT22;12308;50.948;4.706;2023-06-14T09:10:18;24.70;99.90
24146;DHT22;12308;50.948;4.706;2023-06-14T09:12:44;24.90;99.90
24146;DHT22;12308;50.948;4.706;2023-06-14T09:15:09;25.00;99.90
24146;DHT22;12308;50.948;4.706;2023-06-14T09:17:36;25.20;99.90
24146;DHT22;12308;50.948;4.706;2023-06-14T09:20:03;25.30;99.90
24146;DHT22;12308;50.948;4.706;2023-06-14T09:22:34;25.40;99.90
24146;DHT22;12308;50.948;4.706;2023-06-14T09:25:00;25.40;99.90
24146;DHT22;12308;50.948;4.706;2023-06-14T09:27:27;25.40;99.90
24146;DHT22;12308;50.948;4.706;2023-06-14T09:29:53;25.40;99.90
24146;DHT22;12308;50.948;4.706;2023-06-14T09:32:20;25.40;99.90
24146;DHT22;12308;50.948;4.706;2023-06-14T09:34:46;25.50;99.90
24146;DHT22;12308;50.948;4.706;2023-06-14T09:37:11;25.50;99.90
24146;DHT22;12308;50.948;4.706;2023-06-14T09:40:04;25.50;99.90
24146;DHT22;12308;50.948;4.706;2023-06-14T09:42:30;25.50;99.90
24146;DHT22;12308;50.948;4.706;2023-06-14T09:44:56;25.50;99.60
24146;DHT22;12308;50.948;4.706;2023-06-14T09:47:23;25.50;99.90
24146;DHT22;12308;50.948;4.706;2023-06-14T09:49:51;25.60;99.20
24146;DHT22;12308;50.948;4.706;2023-06-14T09:52:18;25.60;99.10
24146;DHT22;12308;50.948;4.706;2023-06-14T09:54:46;25.70;98.00
24146;DHT22;12308;50.948;4.706;2023-06-14T09:57:14;25.80;98.90
24146;DHT22;12308;50.948;4.706;2023-06-14T09:59:46;25.90;98.40
24146;DHT22;12308;50.948;4.706;2023-06-14T10:02:35;26.20;98.10
24146;DHT22;12308;50.948;4.706;2023-06-14T10:05:06;26.40;98.00
24146;DHT22;12308;50.948;4.706;2023-06-14T10:07:42;26.40;96.80
24146;DHT22;12308;50.948;4.706;2023-06-14T10:10:10;26.40;97.30
24146;DHT22;12308;50.948;4.706;2023-06-14T10:12:36;26.40;96.70
24146;DHT22;12308;50.948;4.706;2023-06-14T10:15:02;26.30;96.30
24146;DHT22;12308;50.948;4.706;2023-06-14T10:23:03;26.70;96.20
24146;DHT22;12308;50.948;4.706;2023-06-14T10:25:31;26.80;96.10
24146;DHT22;12308;50.948;4.706;2023-06-14T10:28:22;26.80;96.50
24146;DHT22;12308;50.948;4.706;2023-06-14T10:31:06;26.70;95.10
24146;DHT22;12308;50.948;4.706;2023-06-14T10:33:34;26.80;95.70
24146;DHT22;12308;50.948;4.706;2023-06-14T10:36:31;27.00;95.90
24146;DHT22;12308;50.948;4.706;2023-06-14T10:41:36;27.00;96.00
24146;DHT22;12308;50.948;4.706;2023-06-14T10:46:45;26.90;92.30
24146;DHT22;12308;50.948;4.706;2023-06-14T10:49:11;26.80;92.60
24146;DHT22;12308;50.948;4.706;2023-06-14T10:51:42;26.80;94.50
24146;DHT22;12308;50.948;4.706;2023-06-14T10:54:16;26.70;94.00
24146;DHT22;12308;50.948;4.706;2023-06-14T10:56:49;26.60;94.20
24146;DHT22;12308;50.948;4.706;2023-06-14T10:59:16;26.60;93.70
24146;DHT22;12308;50.948;4.706;2023-06-14T11:04:52;26.90;92.90
24146;DHT22;12308;50.948;4.706;2023-06-14T11:10:38;26.80;92.50
24146;DHT22;12308;50.948;4.706;2023-06-14T11:13:04;26.70;91.80
24146;DHT22;12308;50.948;4.706;2023-06-14T11:15:31;26.80;92.90
24146;DHT22;12308;50.948;4.706;2023-06-14T11:17:59;26.90;92.40
24146;DHT22;12308;50.948;4.706;2023-06-14T11:20:26;26.80;92.20
24146;DHT22;12308;50.948;4.706;2023-06-14T11:22:53;27.00;93.50
24146;DHT22;12308;50.948;4.706;2023-06-14T11:25:19;27.10;92.70
24146;DHT22;12308;50.948;4.706;2023-06-14T11:27:46;27.10;91.30
24146;DHT22;12308;50.948;4.706;2023-06-14T11:30:14;27.00;91.70
24146;DHT22;12308;50.948;4.706;2023-06-14T11:32:40;27.00;91.90
24146;DHT22;12308;50.948;4.706;2023-06-14T11:35:07;27.10;92.80
24146;DHT22;12308;50.948;4.706;2023-06-14T11:37:34;27.20;93.40
24146;DHT22;12308;50.948;4.706;2023-06-14T11:40:03;27.40;92.20
24146;DHT22;12308;50.948;4.706;2023-06-14T11:42:34;27.30;91.40
24146;DHT22;12308;50.948;4.706;2023-06-14T11:45:00;27.00;92.10
24146;DHT22;12308;50.948;4.706;2023-06-14T11:47:36;27.10;92.80
24146;DHT22;12308;50.948;4.706;2023-06-14T11:50:03;27.00;92.40
24146;DHT22;12308;50.948;4.706;2023-06-14T11:52:31;26.90;92.50
24146;DHT22;12308;50.948;4.706;2023-06-14T11:54:57;26.90;91.60
24146;DHT22;12308;50.948;4.706;2023-06-14T11:57:24;26.80;91.70
24146;DHT22;12308;50.948;4.706;2023-06-14T11:59:50;26.80;93.60
24146;DHT22;12308;50.948;4.706;2023-06-14T12:02:16;26.80;92.90
24146;DHT22;12308;50.948;4.706;2023-06-14T12:04:43;26.90;91.10
24146;DHT22;12308;50.948;4.706;2023-06-14T12:07:13;27.00;92.50
24146;DHT22;12308;50.948;4.706;2023-06-14T12:10:03;27.00;91.20
24146;DHT22;12308;50.948;4.706;2023-06-14T12:12:38;27.00;91.30
24146;DHT22;12308;50.948;4.706;2023-06-14T12:15:06;27.00;91.70
24146;DHT22;12308;50.948;4.706;2023-06-14T12:17:33;27.00;92.50
24146;DHT22;12308;50.948;4.706;2023-06-14T12:20:05;27.20;92.00
24146;DHT22;12308;50.948;4.706;2023-06-14T12:22:34;27.20;91.90
24146;DHT22;12308;50.948;4.706;2023-06-14T12:25:00;27.30;91.20
24146;DHT22;12308;50.948;4.706;2023-06-14T12:27:25;27.40;90.00
24146;DHT22;12308;50.948;4.706;2023-06-14T12:30:04;27.40;90.70
24146;DHT22;12308;50.948;4.706;2023-06-14T12:32:30;27.40;90.80
24146;DHT22;12308;50.948;4.706;2023-06-14T12:34:56;27.30;90.60
24146;DHT22;12308;50.948;4.706;2023-06-14T12:37:22;27.40;90.00
24146;DHT22;12308;50.948;4.706;2023-06-14T12:39:47;27.50;90.30
24146;DHT22;12308;50.948;4.706;2023-06-14T12:42:13;27.50;90.30
24146;DHT22;12308;50.948;4.706;2023-06-14T12:44:40;27.60;90.30
24146;DHT22;12308;50.948;4.706;2023-06-14T12:47:07;27.50;88.80
24146;DHT22;12308;50.948;4.706;2023-06-14T12:49:33;27.40;90.00
24146;DHT22;12308;50.948;4.706;2023-06-14T12:51:58;27.20;88.00
24146;DHT22;12308;50.948;4.706;2023-06-14T12:54:24;27.20;89.10
24146;DHT22;12308;50.948;4.706;2023-06-14T12:56:53;27.30;87.30
24146;DHT22;12308;50.948;4.706;2023-06-14T12:59:20;27.40;89.20
24146;DHT22;12308;50.948;4.706;2023-06-14T13:01:46;27.40;86.30
24146;DHT22;12308;50.948;4.706;2023-06-14T13:04:15;27.40;89.70
24146;DHT22;12308;50.948;4.706;2023-06-14T13:06:40;27.50;86.80
24146;DHT22;12308;50.948;4.706;2023-06-14T13:09:06;27.50;87.00
24146;DHT22;12308;50.948;4.706;2023-06-14T13:11:33;27.30;86.40
24146;DHT22;12308;50.948;4.706;2023-06-14T13:13:59;27.20;87.10
24146;DHT22;12308;50.948;4.706;2023-06-14T13:16:24;27.30;85.70
24146;DHT22;12308;50.948;4.706;2023-06-14T13:18:50;27.30;86.70
24146;DHT22;12308;50.948;4.706;2023-06-14T13:21:16;27.50;85.40
24146;DHT22;12308;50.948;4.706;2023-06-14T13:23:41;27.60;85.30
24146;DHT22;12308;50.948;4.706;2023-06-14T13:26:07;27.40;86.00
24146;DHT22;12308;50.948;4.706;2023-06-14T13:28:33;27.30;84.80
24146;DHT22;12308;50.948;4.706;2023-06-14T13:31:00;27.20;85.00
24146;DHT22;12308;50.948;4.706;2023-06-14T13:33:27;27.40;85.70
24146;DHT22;12308;50.948;4.706;2023-06-14T13:35:52;27.50;85.20
24146;DHT22;12308;50.948;4.706;2023-06-14T13:38:18;27.70;85.40
24146;DHT22;12308;50.948;4.706;2023-06-14T13:40:44;27.90;84.10
24146;DHT22;12308;50.948;4.706;2023-06-14T13:43:10;28.00;83.10
24146;DHT22;12308;50.948;4.706;2023-06-14T13:45:35;27.80;80.60
24146;DHT22;12308;50.948;4.706;2023-06-14T13:48:01;27.80;81.90
24146;DHT22;12308;50.948;4.706;2023-06-14T13:50:26;27.90;81.40
24146;DHT22;12308;50.948;4.706;2023-06-14T13:52:53;28.00;78.10
24146;DHT22;12308;50.948;4.706;2023-06-14T13:55:18;27.80;79.10
24146;DHT22;12308;50.948;4.706;2023-06-14T13:57:44;27.90;79.00
24146;DHT22;12308;50.948;4.706;2023-06-14T14:00:11;28.00;82.10
24146;DHT22;12308;50.948;4.706;2023-06-14T14:02:37;28.20;81.20
24146;DHT22;12308;50.948;4.706;2023-06-14T14:05:03;28.10;81.40
24146;DHT22;12308;50.948;4.706;2023-06-14T14:07:28;27.90;82.30
24146;DHT22;12308;50.948;4.706;2023-06-14T14:09:55;27.80;81.70
24146;DHT22;12308;50.948;4.706;2023-06-14T14:12:23;27.90;81.50
24146;DHT22;12308;50.948;4.706;2023-06-14T14:14:48;27.90;83.10
24146;DHT22;12308;50.948;4.706;2023-06-14T14:17:14;27.90;84.20
24146;DHT22;12308;50.948;4.706;2023-06-14T14:19:40;27.80;78.70
24146;DHT22;12308;50.948;4.706;2023-06-14T14:22:05;27.60;81.10
24146;DHT22;12308;50.948;4.706;2023-06-14T14:24:31;27.80;81.60
24146;DHT22;12308;50.948;4.706;2023-06-14T14:26:57;27.90;82.10
24146;DHT22;12308;50.948;4.706;2023-06-14T14:29:25;27.70;81.50
24146;DHT22;12308;50.948;4.706;2023-06-14T14:31:54;27.70;83.20
24146;DHT22;12308;50.948;4.706;2023-06-14T14:34:20;27.80;83.10
24146;DHT22;12308;50.948;4.706;2023-06-14T14:36:46;27.90;84.50
24146;DHT22;12308;50.948;4.706;2023-06-14T14:39:11;27.90;84.30
24146;DHT22;12308;50.948;4.706;2023-06-14T14:41:37;27.90;83.20
24146;DHT22;12308;50.948;4.706;2023-06-14T14:44:04;27.80;84.40
24146;DHT22;12308;50.948;4.706;2023-06-14T14:46:30;27.80;84.80
24146;DHT22;12308;50.948;4.706;2023-06-14T14:48:55;27.70;80.80
24146;DHT22;12308;50.948;4.706;2023-06-14T14:51:21;27.90;84.20
24146;DHT22;12308;50.948;4.706;2023-06-14T14:53:46;28.10;81.40
24146;DHT22;12308;50.948;4.706;2023-06-14T14:56:12;28.10;81.20
24146;DHT22;12308;50.948;4.706;2023-06-14T14:58:38;28.20;80.50
24146;DHT22;12308;50.948;4.706;2023-06-14T15:01:04;28.10;80.10
24146;DHT22;12308;50.948;4.706;2023-06-14T15:03:31;28.00;81.30
24146;DHT22;12308;50.948;4.706;2023-06-14T15:05:56;27.90;81.30
24146;DHT22;12308;50.948;4.706;2023-06-14T15:08:22;28.00;82.00
24146;DHT22;12308;50.948;4.706;2023-06-14T15:10:48;28.00;80.70
24146;DHT22;12308;50.948;4.706;2023-06-14T15:13:13;27.90;82.60
24146;DHT22;12308;50.948;4.706;2023-06-14T15:15:39;27.70;81.90
24146;DHT22;12308;50.948;4.706;2023-06-14T15:18:05;27.60;81.60
24146;DHT22;12308;50.948;4.706;2023-06-14T15:20:30;27.50;81.90
24146;DHT22;12308;50.948;4.706;2023-06-14T15:22:57;27.60;82.30
24146;DHT22;12308;50.948;4.706;2023-06-14T15:25:26;27.60;81.90
24146;DHT22;12308;50.948;4.706;2023-06-14T15:27:52;27.50;81.90
24146;DHT22;12308;50.948;4.706;2023-06-14T15:30:17;27.60;82.70
24146;DHT22;12308;50.948;4.706;2023-06-14T15:32:43;27.50;83.80
24146;DHT22;12308;50.948;4.706;2023-06-14T15:35:08;27.70;85.00
24146;DHT22;12308;50.948;4.706;2023-06-14T15:37:34;27.80;83.70
24146;DHT22;12308;50.948;4.706;2023-06-14T15:40:00;27.90;84.20
24146;DHT22;12308;50.948;4.706;2023-06-14T15:42:25;28.00;84.10
24146;DHT22;12308;50.948;4.706;2023-06-14T15:44:51;28.00;83.30
24146;DHT22;12308;50.948;4.706;2023-06-14T15:47:17;27.90;83.60
24146;DHT22;12308;50.948;4.706;2023-06-14T15:49:42;27.90;84.00